DW6648 Broadstone UK current weather conditions

sailwx.info

Wind from 048 at 1 knots gusting 2

Air temperature 18.3° C
Dewpoint 16.3° C

Last reported at 2019-Jun-25 23:03 UTC.
Time now 2019-Jun-25 23:50 UTC

Location: N 50°45' W 001°60'.
View on Google Maps.

See reports from other nearby stations

  
Tides and Currents Weather Stations Pressure Air Temp Water Temp Dewpoint Dewpoint Depression Visibility Wind Speed Wind Dir Waves Ship Positions
date/time (UTC)wind fromknots sea level pressurealtimeterstation pressurevisibilityair tempwater tempwave heightnotes
2019-Jun-25 23:03 048 1 gusting 2 18.3
2019-Jun-25 22:58 040 0 gusting 2 18.3
2019-Jun-25 22:53 032 1 gusting 2 18.3
2019-Jun-25 22:38 037 18.9
2019-Jun-25 22:33 037 18.9
2019-Jun-25 22:23 353 0 gusting 1 18.9
2019-Jun-25 22:18 281 18.9
2019-Jun-25 22:08 281 18.9
2019-Jun-25 21:58 281 19.4
2019-Jun-25 21:53 281 19.4
2019-Jun-25 21:43 281 19.4
2019-Jun-25 21:23 281 0 gusting 1 19.4
2019-Jun-25 21:03 263 0 gusting 2 19.4
2019-Jun-25 20:58 269 1 gusting 2 19.4
2019-Jun-25 20:53 258 19.4
2019-Jun-25 20:43 240 0 gusting 2 20.0
2019-Jun-25 20:38 255 1 gusting 2 20.0
2019-Jun-25 20:33 262 1 gusting 2 20.0
2019-Jun-25 20:28 285 0 gusting 2 20.0
2019-Jun-25 20:23 285 0 gusting 1 20.0
2019-Jun-25 20:18 266 0 gusting 1 20.6
2019-Jun-25 20:13 221 20.6
2019-Jun-25 20:08 221 20.6
2019-Jun-25 19:53 244 20.6
2019-Jun-25 19:43 244 1 gusting 2 20.6
2019-Jun-25 19:38 244 2 gusting 2 21.1
2019-Jun-25 19:33 227 0 gusting 2 21.1
2019-Jun-25 19:28 240 0 gusting 2 21.1
2019-Jun-25 19:18 184 0 gusting 2 21.1
2019-Jun-25 18:58 174 1 gusting 5 21.7
2019-Jun-25 18:53 200 3 gusting 6 21.7
2019-Jun-25 18:43 189 3 gusting 6 21.7
2019-Jun-25 18:38 196 2 gusting 6 22.2
2019-Jun-25 18:28 206 3 gusting 6 22.8
2019-Jun-25 18:18 222 4 gusting 6 22.8
2019-Jun-25 18:13 209 3 gusting 6 23.3
2019-Jun-25 18:03 191 0 gusting 2 23.3
2019-Jun-25 17:58 197 1 gusting 2 23.3
2019-Jun-25 17:53 173 1 gusting 2 23.9
2019-Jun-25 17:38 171 0 gusting 2 23.9
2019-Jun-25 17:33 197 1 gusting 2 23.9
2019-Jun-25 17:28 198 1 gusting 4 23.9
2019-Jun-25 17:23 184 1 gusting 4 23.9
2019-Jun-25 17:18 183 1 gusting 4 24.4
2019-Jun-25 17:13 171 1 gusting 5 23.9
2019-Jun-25 17:08 174 2 gusting 5 23.9
2019-Jun-25 17:03 206 2 gusting 5 23.3
2019-Jun-25 16:58 212 2 gusting 5 23.3
2019-Jun-25 16:53 184 2 gusting 5 23.3
2019-Jun-25 16:38 192 3 gusting 5 23.9
2019-Jun-25 16:28 163 1 gusting 4 23.9
2019-Jun-25 16:23 164 2 gusting 5 23.9
2019-Jun-25 16:18 194 1 gusting 5 23.9
2019-Jun-25 16:08 196 4 gusting 5 23.3
2019-Jun-25 15:53 154 1 gusting 2 23.3
2019-Jun-25 15:48 184 0 gusting 2 23.3
2019-Jun-25 15:43 193 23.3
2019-Jun-25 15:38 193 1 gusting 4 23.9
2019-Jun-25 15:33 187 1 gusting 2 23.9
2019-Jun-25 15:28 193 1 gusting 2 23.9
2019-Jun-25 15:23 186 0 gusting 2 23.9
2019-Jun-25 15:18 176 0 gusting 2 23.9
2019-Jun-25 15:13 140 0 gusting 1 23.9
2019-Jun-25 15:08 029 23.9
2019-Jun-25 09:03 050 0 gusting 2 18.3
2019-Jun-25 08:58 014 1 gusting 2 17.8
2019-Jun-25 08:53 300 17.8
2019-Jun-25 08:48 300 0 gusting 2 17.2
2019-Jun-25 08:43 300 0 gusting 2 17.2
2019-Jun-25 08:38 311 1 gusting 2 17.2
2019-Jun-25 08:28 301 1 gusting 2 17.2
2019-Jun-25 08:23 310 2 gusting 2 17.2
2019-Jun-25 08:13 304 16.7
2019-Jun-25 08:08 312 0 gusting 2 16.7
2019-Jun-25 08:03 313 1 gusting 2 16.7
2019-Jun-25 07:58 316 1 gusting 4 16.7
2019-Jun-25 07:53 301 1 gusting 4 16.7
2019-Jun-25 07:48 316 2 gusting 4 16.7
2019-Jun-25 07:43 304 1 gusting 2 16.7
2019-Jun-25 07:38 300 1 gusting 2 16.7
2019-Jun-25 07:23 303 1 gusting 2 16.1
2019-Jun-25 07:13 343 0 gusting 2 16.1
2019-Jun-25 07:03 302 1 gusting 2 15.6
2019-Jun-25 06:58 297 0 gusting 2 15.6
2019-Jun-25 06:53 307 0 gusting 2 15.6
2019-Jun-25 06:48 330 0 gusting 2 15.6
2019-Jun-25 06:43 317 0 gusting 4 15.6
2019-Jun-25 06:38 304 0 gusting 4 15.6
2019-Jun-25 06:33 315 2 gusting 4 15.6
2019-Jun-25 06:23 334 0 gusting 2 15.6
2019-Jun-25 06:18 317 0 gusting 2 15.6
2019-Jun-25 06:13 299 1 gusting 2 15.6
2019-Jun-25 06:08 306 1 gusting 4 15.6
2019-Jun-25 05:48 314 1 gusting 4 15.6
2019-Jun-25 05:38 305 2 gusting 5 15.6
2019-Jun-25 05:33 309 2 gusting 6 15.6
2019-Jun-25 05:18 267 2 gusting 5 15.6
2019-Jun-24 09:08 284 0 gusting 5 19.4
2019-Jun-24 09:03 246 2 gusting 5 19.4
2019-Jun-24 08:58 261 2 gusting 6 19.4
2019-Jun-24 08:43 271 4 gusting 6 19.4
2019-Jun-24 08:38 271 4 gusting 6 19.4
2019-Jun-24 08:28 254 3 gusting 6 18.9
2019-Jun-24 08:23 284 2 gusting 5 18.9
2019-Jun-24 08:13 224 1 gusting 2 18.9
2019-Jun-24 08:08 243 1 gusting 6 18.9
2019-Jun-24 08:03 239 2 gusting 6 18.9
2019-Jun-24 07:58 233 4 gusting 6 18.9
2019-Jun-24 07:48 207 2 gusting 6 18.3
2019-Jun-24 07:43 228 2 gusting 6 18.3
2019-Jun-24 07:38 241 3 gusting 6 18.3
2019-Jun-24 07:33 259 2 gusting 6 18.3
2019-Jun-24 07:13 200 17.8
2019-Jun-24 07:08 242 0 gusting 2 17.8
2019-Jun-24 07:03 261 0 gusting 2 17.8
2019-Jun-24 06:58 253 1 gusting 2 17.8
2019-Jun-24 06:43 196 1 gusting 5 17.8
2019-Jun-24 06:38 224 0 gusting 5 17.8
2019-Jun-24 06:28 178 1 gusting 2 17.2
2019-Jun-24 06:23 239 1 gusting 2 17.2
2019-Jun-24 06:13 241 0 gusting 4 17.2
2019-Jun-24 06:08 244 1 gusting 4 16.7
2019-Jun-24 06:03 289 0 gusting 2 16.7
2019-Jun-24 05:53 300 0 gusting 1 16.7
2019-Jun-24 05:48 300 16.1
2019-Jun-24 05:43 301 16.1
2019-Jun-24 05:38 300 16.1
2019-Jun-24 05:33 300 0 gusting 1 16.1
2019-Jun-24 05:28 301 16.1
2019-Jun-24 05:23 301 16.1
2019-Jun-24 05:18 301 16.1
2019-Jun-24 05:03 316 0 gusting 2 15.6
2019-Jun-24 04:53 304 15.6
2019-Jun-24 04:48 304 15.6
2019-Jun-24 04:38 303 1 gusting 2 15.6
2019-Jun-24 04:33 300 0 gusting 2 15.6
2019-Jun-24 04:28 312 0 gusting 1 15.6
2019-Jun-24 04:18 312 15.6
2019-Jun-24 04:13 312 0 gusting 1 15.6
2019-Jun-24 04:08 312 15.6
2019-Jun-24 03:58 347 15.6
2019-Jun-24 03:33 275 0 gusting 2 15.6
2019-Jun-24 03:28 284 0 gusting 2 15.6
2019-Jun-24 03:18 280 1 gusting 2 15.6
2019-Jun-24 03:13 300 15.6
2019-Jun-24 03:03 303 15.6
2019-Jun-24 02:58 321 15.6
2019-Jun-24 02:53 037 15.6
2019-Jun-24 02:48 057 15.6
2019-Jun-24 02:43 057 15.6
2019-Jun-24 02:38 057 15.6
2019-Jun-24 02:28 057 16.1
2019-Jun-24 02:23 057 16.1
2019-Jun-24 02:13 057 16.1
2019-Jun-24 02:08 057 16.1
2019-Jun-24 01:58 057 16.1
2019-Jun-24 01:48 062 16.1
2019-Jun-24 01:38 080 16.1
2019-Jun-24 01:33 077 16.1
2019-Jun-24 01:28 080 16.1
2019-Jun-24 01:23 080 16.1
2019-Jun-24 01:18 080 16.7
2019-Jun-24 01:13 080 16.7
2019-Jun-24 01:08 080 0 gusting 1 16.7
2019-Jun-24 01:03 080 16.7
2019-Jun-24 00:58 080 16.7
2019-Jun-24 00:53 080 16.7
2019-Jun-24 00:43 087 16.7
2019-Jun-24 00:38 044 16.7
2019-Jun-24 00:33 044 16.7
2019-Jun-24 00:28 044 16.7
2019-Jun-24 00:18 060 16.7
2019-Jun-24 00:08 098 17.2
2019-Jun-24 00:03 098 17.2
2019-Jun-23 23:38 098 17.2
2019-Jun-23 23:33 098 17.2
2019-Jun-23 23:28 098 17.2
2019-Jun-23 23:23 105 17.8
2019-Jun-23 23:13 069 17.8
2019-Jun-23 23:03 069 17.8